createdAt,value
2023-02-15T00:02:02.136Z,31.23
2023-02-15T00:04:47.051Z,34.35
2023-02-15T00:07:18.414Z,31.05
2023-02-15T00:09:47.202Z,34.30
2023-02-15T00:12:14.776Z,33.38
2023-02-15T00:14:43.042Z,32.28
2023-02-15T00:17:10.292Z,36.05
2023-02-15T00:19:37.574Z,35.65
2023-02-15T00:22:04.841Z,37.65
2023-02-15T00:24:32.056Z,39.15
2023-02-15T00:26:59.785Z,36.92
2023-02-15T00:29:27.044Z,35.65
2023-02-15T00:31:54.456Z,41.00
2023-02-15T00:34:26.805Z,34.47
2023-02-15T00:36:54.360Z,35.75
2023-02-15T00:39:22.301Z,37.60
2023-02-15T00:41:49.607Z,35.80
2023-02-15T00:44:16.938Z,35.05
2023-02-15T00:46:44.275Z,36.25
2023-02-15T00:49:11.737Z,36.72
2023-02-15T00:51:40.340Z,36.35
2023-02-15T00:54:07.693Z,29.73
2023-02-15T00:56:35.034Z,36.63
2023-02-15T00:59:02.298Z,35.92
2023-02-15T01:01:29.659Z,34.97
2023-02-15T01:03:56.966Z,37.72
2023-02-15T01:06:24.178Z,36.75
2023-02-15T01:08:51.468Z,36.05
2023-02-15T01:11:23.035Z,33.92
2023-02-15T01:13:52.981Z,35.53
2023-02-15T01:16:20.605Z,33.40
2023-02-15T01:18:47.947Z,31.27
2023-02-15T01:21:17.695Z,31.47
2023-02-15T01:23:45.125Z,33.28
2023-02-15T01:26:13.672Z,30.55
2023-02-15T01:28:40.912Z,34.38
2023-02-15T01:31:12.395Z,31.92
2023-02-15T01:33:40.280Z,32.25
2023-02-15T01:36:07.658Z,34.13
2023-02-15T01:38:35.937Z,33.90
2023-02-15T01:41:21.890Z,31.42
2023-02-15T01:43:50.533Z,32.17
2023-02-15T01:46:20.810Z,33.30
2023-02-15T01:48:54.218Z,33.03
2023-02-15T01:51:23.653Z,34.60
2023-02-15T01:56:21.572Z,31.35
2023-02-15T01:58:51.236Z,32.58
2023-02-15T02:01:19.270Z,31.20
2023-02-15T02:03:59.060Z,34.75
2023-02-15T02:06:27.498Z,32.47
2023-02-15T02:08:55.960Z,32.65
2023-02-15T02:11:23.559Z,31.85
2023-02-15T02:13:51.852Z,31.17
2023-02-15T02:16:26.463Z,30.92
2023-02-15T02:19:02.782Z,30.15
2023-02-15T02:21:48.976Z,28.00
2023-02-15T02:24:34.994Z,27.90
2023-02-15T02:27:08.366Z,27.33
2023-02-15T02:29:47.789Z,27.27
2023-02-15T02:32:15.118Z,28.20
2023-02-15T02:34:51.565Z,26.83
2023-02-15T02:37:25.359Z,27.75
2023-02-15T02:39:58.456Z,26.42
2023-02-15T02:42:40.720Z,25.48
2023-02-15T02:45:15.141Z,27.33
2023-02-15T02:47:58.347Z,27.83
2023-02-15T02:50:27.646Z,26.48
2023-02-15T02:52:55.869Z,27.27
2023-02-15T02:55:43.210Z,27.05
2023-02-15T02:58:16.820Z,27.90
2023-02-15T03:00:44.056Z,25.48
2023-02-15T03:03:15.910Z,28.13
2023-02-15T03:05:45.741Z,29.00
2023-02-15T03:08:22.578Z,27.20
2023-02-15T03:10:50.811Z,27.75
2023-02-15T03:13:18.478Z,29.40
2023-02-15T03:16:05.058Z,27.00
2023-02-15T03:18:53.580Z,27.35
2023-02-15T03:24:00.098Z,21.05
2023-02-15T03:26:28.480Z,24.67
2023-02-15T03:28:58.074Z,25.95
2023-02-15T03:31:28.250Z,24.52
2023-02-15T03:33:57.816Z,25.13
2023-02-15T03:39:15.452Z,24.90
2023-02-15T03:41:46.939Z,25.45
2023-02-15T03:44:17.390Z,26.77
2023-02-15T03:46:53.690Z,29.27
2023-02-15T03:49:26.601Z,25.70
2023-02-15T03:51:56.355Z,25.98
2023-02-15T03:54:44.877Z,24.63
2023-02-15T03:57:32.768Z,24.57
2023-02-15T04:00:19.129Z,26.38
2023-02-15T04:02:46.723Z,25.95
2023-02-15T04:05:13.986Z,25.30
2023-02-15T04:07:41.174Z,28.33
2023-02-15T04:10:26.982Z,28.35
2023-02-15T04:12:54.282Z,31.77
2023-02-15T04:15:40.093Z,30.55
2023-02-15T04:18:07.304Z,31.90
2023-02-15T04:20:53.090Z,32.25
2023-02-15T04:23:39.349Z,31.00
2023-02-15T04:26:06.890Z,32.65
2023-02-15T04:28:34.149Z,34.60
2023-02-15T04:31:01.429Z,31.80
2023-02-15T04:33:28.737Z,31.50
2023-02-15T04:35:56.263Z,33.40
2023-02-15T04:38:23.876Z,33.00
2023-02-15T04:40:52.869Z,31.58
2023-02-15T04:43:20.562Z,32.33
2023-02-15T04:45:51.590Z,32.80
2023-02-15T04:48:19.252Z,34.05
2023-02-15T04:50:46.763Z,34.83
2023-02-15T04:53:13.964Z,33.65
2023-02-15T04:55:41.238Z,34.22
2023-02-15T04:58:08.462Z,34.55
2023-02-15T05:00:35.724Z,35.47
2023-02-15T05:03:02.949Z,35.90
2023-02-15T05:05:30.153Z,33.53
2023-02-15T05:07:57.373Z,35.17
2023-02-15T05:10:24.680Z,36.53
2023-02-15T05:12:51.912Z,33.53
2023-02-15T05:15:19.256Z,35.22
2023-02-15T05:17:46.479Z,35.92
2023-02-15T05:20:13.754Z,35.28
2023-02-15T05:22:41.826Z,34.25
2023-02-15T05:25:28.848Z,32.50
2023-02-15T05:28:14.966Z,32.60
2023-02-15T05:30:42.328Z,33.70
2023-02-15T05:33:09.769Z,33.58
2023-02-15T05:35:37.012Z,36.22
2023-02-15T05:38:04.251Z,33.45
2023-02-15T05:40:31.532Z,33.13
2023-02-15T05:42:58.803Z,36.33
2023-02-15T05:45:26.571Z,35.42
2023-02-15T05:47:54.148Z,35.70
2023-02-15T05:50:21.397Z,35.53
2023-02-15T05:52:50.370Z,35.60
2023-02-15T05:55:18.722Z,34.70
2023-02-15T05:57:45.987Z,33.38
2023-02-15T06:00:14.789Z,34.17
2023-02-15T06:02:42.489Z,34.08
2023-02-15T06:05:10.165Z,34.22
2023-02-15T06:07:37.484Z,35.17
2023-02-15T06:10:05.493Z,34.45
2023-02-15T06:12:32.743Z,36.28
2023-02-15T06:14:59.932Z,34.55
2023-02-15T06:17:27.190Z,35.65
2023-02-15T06:19:54.423Z,37.10
2023-02-15T06:22:21.902Z,37.58
2023-02-15T06:24:49.143Z,33.88
2023-02-15T06:27:16.512Z,36.60
2023-02-15T06:29:43.869Z,35.03
2023-02-15T06:32:11.253Z,33.17
2023-02-15T06:34:38.528Z,32.75
2023-02-15T06:37:05.838Z,35.63
2023-02-15T06:39:33.424Z,35.28
2023-02-15T06:42:00.731Z,35.92
2023-02-15T06:44:27.983Z,33.78
2023-02-15T06:46:55.196Z,36.83
2023-02-15T06:49:22.446Z,35.05
2023-02-15T06:51:49.686Z,34.10
2023-02-15T06:54:17.000Z,36.58
2023-02-15T06:56:44.608Z,37.47
2023-02-15T06:59:11.840Z,36.40
2023-02-15T07:01:39.213Z,37.22
2023-02-15T07:04:06.485Z,36.30
2023-02-15T07:06:34.418Z,36.13
2023-02-15T07:09:01.751Z,38.80
2023-02-15T07:11:47.908Z,33.88
2023-02-15T07:14:15.158Z,36.38
2023-02-15T07:16:42.488Z,37.53
2023-02-15T07:19:09.755Z,40.25
2023-02-15T07:21:37.519Z,38.67
2023-02-15T07:24:05.152Z,37.20
2023-02-15T07:26:35.423Z,40.55
2023-02-15T07:29:02.646Z,38.05
2023-02-15T07:31:30.237Z,39.95
2023-02-15T07:33:57.397Z,40.05
2023-02-15T07:36:24.645Z,44.03
2023-02-15T07:38:51.867Z,40.80
2023-02-15T07:41:19.053Z,42.08
2023-02-15T07:43:46.802Z,45.70
2023-02-15T07:46:16.141Z,43.10
2023-02-15T07:48:43.836Z,44.65
2023-02-15T07:51:12.330Z,47.60
2023-02-15T07:53:40.165Z,35.30
2023-02-15T07:56:08.876Z,48.83
2023-02-15T07:58:56.696Z,50.22
2023-02-15T08:01:28.256Z,50.53
2023-02-15T08:03:56.191Z,51.15
2023-02-15T08:06:27.997Z,55.55
2023-02-15T08:08:55.327Z,53.17
2023-02-15T08:11:26.757Z,51.92
2023-02-15T08:13:55.490Z,53.70
2023-02-15T08:16:27.150Z,54.70
2023-02-15T08:18:55.047Z,61.10
2023-02-15T08:21:24.865Z,56.42
2023-02-15T08:23:52.714Z,59.70
2023-02-15T08:26:20.232Z,56.10
2023-02-15T08:28:47.539Z,56.95
2023-02-15T08:31:15.499Z,53.70
2023-02-15T08:33:44.328Z,54.45
2023-02-15T08:36:16.314Z,54.47
2023-02-15T08:38:43.977Z,53.40
2023-02-15T08:41:15.108Z,51.40
2023-02-15T08:43:42.835Z,51.95
2023-02-15T08:46:11.169Z,52.08
2023-02-15T08:48:38.547Z,50.77
2023-02-15T08:51:15.803Z,51.70
2023-02-15T08:53:44.838Z,53.50
2023-02-15T08:56:12.888Z,53.10
2023-02-15T08:58:40.154Z,52.75
2023-02-15T09:01:18.775Z,50.25
2023-02-15T09:03:46.949Z,49.88
2023-02-15T09:06:14.640Z,52.33
2023-02-15T09:08:42.100Z,51.03
2023-02-15T09:11:32.669Z,51.05
2023-02-15T09:14:10.246Z,49.65
2023-02-15T09:16:39.006Z,42.67
2023-02-15T09:19:07.182Z,45.88
2023-02-15T09:21:38.414Z,42.45
2023-02-15T09:24:07.304Z,42.25
2023-02-15T09:26:36.649Z,37.30
2023-02-15T09:29:04.856Z,38.20
2023-02-15T09:31:33.634Z,38.88
2023-02-15T09:34:02.385Z,35.92
2023-02-15T09:36:33.893Z,38.75
2023-02-15T09:39:08.518Z,38.40
2023-02-15T09:41:46.648Z,39.05
2023-02-15T09:44:29.016Z,35.10
2023-02-15T09:47:05.821Z,34.92
2023-02-15T09:49:51.803Z,36.47
2023-02-15T09:52:31.197Z,35.28
2023-02-15T09:57:26.029Z,34.22
2023-02-15T10:00:13.487Z,34.67
2023-02-15T10:02:43.851Z,35.28
2023-02-15T10:05:13.894Z,34.00
2023-02-15T10:07:41.132Z,34.40
2023-02-15T10:10:14.190Z,35.15
2023-02-15T10:12:59.521Z,38.03
2023-02-15T10:15:29.919Z,32.50
2023-02-15T10:18:15.857Z,32.05
2023-02-15T10:20:43.110Z,33.30
2023-02-15T10:23:10.429Z,35.53
2023-02-15T10:25:40.523Z,34.08
2023-02-15T10:28:11.155Z,32.08
2023-02-15T10:30:38.668Z,32.03
2023-02-15T10:33:10.447Z,32.92
2023-02-15T10:35:49.058Z,30.25
2023-02-15T10:38:36.066Z,31.67
2023-02-15T10:41:04.930Z,32.42
2023-02-15T10:43:40.572Z,32.42
2023-02-15T10:46:28.739Z,32.55
2023-02-15T10:49:01.677Z,32.75
2023-02-15T10:51:28.924Z,33.28
2023-02-15T10:54:03.940Z,31.67
2023-02-15T10:56:34.064Z,33.47
2023-02-15T10:59:09.981Z,34.67
2023-02-15T11:01:46.132Z,33.33
2023-02-15T11:04:13.688Z,34.25
2023-02-15T11:06:44.531Z,33.80
2023-02-15T11:09:13.962Z,35.95
2023-02-15T11:11:43.444Z,35.38
2023-02-15T11:14:21.653Z,34.45
2023-02-15T11:16:52.478Z,35.73
2023-02-15T11:19:33.112Z,37.80
2023-02-15T11:22:02.646Z,35.50
2023-02-15T11:24:31.252Z,34.67
2023-02-15T11:27:18.563Z,34.78
2023-02-15T11:29:51.916Z,34.75
2023-02-15T11:32:24.742Z,36.05
2023-02-15T11:34:54.768Z,35.10
2023-02-15T11:37:25.573Z,36.80
2023-02-15T11:39:55.743Z,33.65
2023-02-15T11:42:25.018Z,36.67
2023-02-15T11:47:19.496Z,35.55
2023-02-15T11:49:47.118Z,37.97
2023-02-15T11:52:16.179Z,38.25
2023-02-15T11:54:45.338Z,36.83
2023-02-15T11:57:19.220Z,37.25
2023-02-15T11:59:55.023Z,36.25
2023-02-15T12:02:23.216Z,40.03
2023-02-15T12:04:55.786Z,38.78
2023-02-15T12:07:26.739Z,37.63
2023-02-15T12:09:53.943Z,39.63
2023-02-15T12:12:21.135Z,39.40
2023-02-15T12:14:49.914Z,35.80
2023-02-15T12:17:17.969Z,38.47
2023-02-15T12:19:46.336Z,40.00
2023-02-15T12:22:27.403Z,39.10
2023-02-15T12:24:56.866Z,38.15
2023-02-15T12:27:27.133Z,38.42
2023-02-15T12:29:57.613Z,38.55
2023-02-15T12:32:47.912Z,40.80
2023-02-15T12:35:16.614Z,38.78
2023-02-15T12:37:53.977Z,44.30
2023-02-15T12:40:31.291Z,37.90
2023-02-15T12:42:59.296Z,39.78
2023-02-15T12:45:28.721Z,40.03
2023-02-15T12:48:14.055Z,40.35
2023-02-15T12:50:43.216Z,41.20
2023-02-15T12:55:37.636Z,38.50
2023-02-15T12:58:08.075Z,42.25
2023-02-15T13:00:35.788Z,38.45
2023-02-15T13:03:03.892Z,41.22
2023-02-15T13:05:34.199Z,39.78
2023-02-15T13:08:10.327Z,40.38
2023-02-15T13:10:38.836Z,41.40
2023-02-15T13:13:11.456Z,39.88
2023-02-15T13:15:42.013Z,40.28
2023-02-15T13:18:13.957Z,39.72
2023-02-15T13:20:41.939Z,40.45
2023-02-15T13:23:17.691Z,41.83
2023-02-15T13:25:51.437Z,39.92
2023-02-15T13:28:20.424Z,40.78
2023-02-15T13:30:48.982Z,40.15
2023-02-15T13:33:21.066Z,39.90
2023-02-15T13:36:01.644Z,39.38
2023-02-15T13:38:49.235Z,40.17
2023-02-15T13:41:29.057Z,39.08
2023-02-15T13:44:03.551Z,39.13
2023-02-15T13:46:30.768Z,41.38
2023-02-15T13:48:58.000Z,41.25
2023-02-15T13:51:37.523Z,39.70
2023-02-15T13:54:10.650Z,38.47
2023-02-15T13:56:45.363Z,40.13
2023-02-15T13:59:24.810Z,38.78
2023-02-15T14:02:10.613Z,41.20
2023-02-15T14:04:47.933Z,37.38
2023-02-15T14:07:26.520Z,40.72
2023-02-15T14:10:02.826Z,39.08
2023-02-15T14:12:45.760Z,40.03
2023-02-15T14:15:32.750Z,41.08
2023-02-15T14:18:00.005Z,39.63
2023-02-15T14:20:41.084Z,41.15
2023-02-15T14:23:13.522Z,40.03
2023-02-15T14:25:59.517Z,38.25
2023-02-15T14:28:40.236Z,39.25
2023-02-15T14:31:09.718Z,38.95
2023-02-15T14:33:40.846Z,38.63
2023-02-15T14:36:10.177Z,38.67
2023-02-15T14:41:09.285Z,36.13
2023-02-15T14:43:52.006Z,37.95
2023-02-15T14:46:25.414Z,37.03
2023-02-15T14:48:55.014Z,38.35
2023-02-15T14:51:41.230Z,38.25
2023-02-15T14:54:09.260Z,40.00
2023-02-15T14:56:37.287Z,36.15
2023-02-15T14:59:13.385Z,35.85
2023-02-15T15:01:40.943Z,35.00
2023-02-15T15:04:15.222Z,37.97
2023-02-15T15:06:44.059Z,39.45
2023-02-15T15:09:13.758Z,34.60
2023-02-15T15:11:44.730Z,37.90
2023-02-15T15:14:32.101Z,33.55
2023-02-15T15:17:00.332Z,37.83
2023-02-15T15:19:51.525Z,35.63
2023-02-15T15:22:19.693Z,36.97
2023-02-15T15:24:47.001Z,35.63
2023-02-15T15:27:32.862Z,35.83
2023-02-15T15:30:00.680Z,35.35
2023-02-15T15:32:29.808Z,37.35
2023-02-15T15:35:02.435Z,35.60
2023-02-15T15:37:48.617Z,33.47
2023-02-15T15:40:21.779Z,37.00
2023-02-15T15:42:48.968Z,35.65
2023-02-15T15:45:31.264Z,36.00
2023-02-15T15:48:06.605Z,35.95
2023-02-15T15:50:34.623Z,37.20
2023-02-15T15:53:02.967Z,35.95
2023-02-15T15:55:31.925Z,35.90
2023-02-15T15:58:02.559Z,36.63
2023-02-15T16:00:29.831Z,35.90
2023-02-15T16:02:57.198Z,37.50
2023-02-15T16:05:24.737Z,38.60
2023-02-15T16:07:52.152Z,36.40
2023-02-15T16:10:26.676Z,38.55
2023-02-15T16:12:54.522Z,36.63
2023-02-15T16:15:24.626Z,38.33
2023-02-15T16:17:57.342Z,39.13
2023-02-15T16:20:24.561Z,39.85
2023-02-15T16:23:00.967Z,40.65
2023-02-15T16:25:51.362Z,39.60
2023-02-15T16:28:21.802Z,38.67
2023-02-15T16:30:56.896Z,37.38
2023-02-15T16:33:24.192Z,40.78
2023-02-15T16:35:56.510Z,40.42
2023-02-15T16:38:35.901Z,39.55
2023-02-15T16:41:03.619Z,38.95
2023-02-15T16:43:32.771Z,40.80
2023-02-15T16:46:07.928Z,43.40
2023-02-15T16:48:39.354Z,40.45
2023-02-15T16:51:06.780Z,39.10
2023-02-15T16:53:34.032Z,40.05
2023-02-15T16:56:05.873Z,42.40
2023-02-15T16:58:42.422Z,43.30
2023-02-15T17:01:11.033Z,44.60
2023-02-15T17:03:51.177Z,41.00
2023-02-15T17:06:23.526Z,42.65
2023-02-15T17:08:51.082Z,42.13
2023-02-15T17:11:34.512Z,41.95
2023-02-15T17:14:09.812Z,43.80
2023-02-15T17:16:37.283Z,41.83
2023-02-15T17:19:10.948Z,41.33
2023-02-15T17:21:47.840Z,43.65
2023-02-15T17:24:22.382Z,42.58
2023-02-15T17:27:00.735Z,41.03
2023-02-15T17:29:35.516Z,44.70
2023-02-15T17:32:03.491Z,42.70
2023-02-15T17:34:42.973Z,41.50
2023-02-15T17:37:25.415Z,42.97
2023-02-15T17:39:52.782Z,43.28
2023-02-15T17:42:20.047Z,44.17
2023-02-15T17:44:47.416Z,42.92
2023-02-15T17:47:16.685Z,44.63
2023-02-15T17:52:17.504Z,44.25
2023-02-15T17:55:03.695Z,44.30
2023-02-15T17:57:31.459Z,42.33
2023-02-15T18:00:17.415Z,46.45
2023-02-15T18:03:03.379Z,47.35
2023-02-15T18:05:49.485Z,47.25
2023-02-15T18:08:36.310Z,49.42
2023-02-15T18:11:22.231Z,44.13
2023-02-15T18:13:49.464Z,44.25
2023-02-15T18:16:24.539Z,46.40
2023-02-15T18:18:51.977Z,45.25
2023-02-15T18:21:20.271Z,46.30
2023-02-15T18:23:47.679Z,44.63
2023-02-15T18:26:19.690Z,43.95
2023-02-15T18:28:46.932Z,44.55
2023-02-15T18:31:14.568Z,43.30
2023-02-15T18:33:44.921Z,42.05
2023-02-15T18:36:15.559Z,46.33
2023-02-15T18:38:42.809Z,45.95
2023-02-15T18:41:15.863Z,43.90
2023-02-15T18:43:43.180Z,43.30
2023-02-15T18:46:10.576Z,45.40
2023-02-15T18:48:37.884Z,45.95
2023-02-15T18:51:08.203Z,42.75
2023-02-15T18:53:35.636Z,42.83
2023-02-15T18:56:02.955Z,41.53
2023-02-15T18:58:30.304Z,41.80
2023-02-15T19:01:00.212Z,43.58
2023-02-15T19:03:27.513Z,41.88
2023-02-15T19:05:55.106Z,47.58
2023-02-15T19:08:24.633Z,43.17
2023-02-15T19:10:52.668Z,38.83
2023-02-15T19:13:20.791Z,43.10
2023-02-15T19:15:48.279Z,39.85
2023-02-15T19:18:30.790Z,43.65
2023-02-15T19:21:23.699Z,43.38
2023-02-15T19:24:03.863Z,38.00
2023-02-15T19:26:44.537Z,40.40
2023-02-15T19:29:14.036Z,39.15
2023-02-15T19:31:41.769Z,39.65
2023-02-15T19:34:16.478Z,42.05
2023-02-15T19:36:44.784Z,38.63
2023-02-15T19:39:50.775Z,41.53
2023-02-15T19:42:20.477Z,41.40
2023-02-15T19:44:47.801Z,39.67
2023-02-15T19:47:15.078Z,42.47
2023-02-15T19:49:42.456Z,41.38
2023-02-15T19:52:17.447Z,41.15
2023-02-15T19:54:46.295Z,43.38
2023-02-15T19:57:13.968Z,40.75
2023-02-15T19:59:41.774Z,39.80
2023-02-15T20:02:14.175Z,38.85
2023-02-15T20:04:41.516Z,41.50
2023-02-15T20:07:14.570Z,41.75
2023-02-15T20:09:43.503Z,38.70
2023-02-15T20:12:31.612Z,44.60
2023-02-15T20:15:09.031Z,38.43
2023-02-15T20:17:37.951Z,37.83
2023-02-15T20:20:07.275Z,38.85
2023-02-15T20:22:45.788Z,38.42
2023-02-15T20:27:55.021Z,42.53
2023-02-15T20:30:26.421Z,38.45
2023-02-15T20:32:53.941Z,38.97
2023-02-15T20:35:26.136Z,39.10
2023-02-15T20:38:00.278Z,39.42
2023-02-15T20:40:32.011Z,38.92
2023-02-15T20:42:59.854Z,38.45
2023-02-15T20:45:29.424Z,42.67
2023-02-15T20:47:57.462Z,40.05
2023-02-15T20:50:27.344Z,43.22
2023-02-15T20:52:55.981Z,42.22
2023-02-15T20:55:24.989Z,41.55
2023-02-15T20:57:52.304Z,39.03
2023-02-15T21:00:21.498Z,37.67
2023-02-15T21:02:50.095Z,39.63
2023-02-15T21:05:18.552Z,40.78
2023-02-15T21:07:46.043Z,38.50
2023-02-15T21:10:17.573Z,42.35
2023-02-15T21:12:45.287Z,39.03
2023-02-15T21:15:25.255Z,42.38
2023-02-15T21:17:52.663Z,40.42
2023-02-15T21:20:20.263Z,39.50
2023-02-15T21:22:48.185Z,40.90
2023-02-15T21:25:16.368Z,40.42
2023-02-15T21:27:44.373Z,40.05
2023-02-15T21:30:18.990Z,38.55
2023-02-15T21:32:46.354Z,40.65
2023-02-15T21:35:13.925Z,41.05
2023-02-15T21:37:41.974Z,40.42
2023-02-15T21:40:21.580Z,39.20
2023-02-15T21:43:07.796Z,41.30
2023-02-15T21:45:53.560Z,38.78
2023-02-15T21:48:22.169Z,40.10
2023-02-15T21:51:11.568Z,41.10
2023-02-15T21:53:43.107Z,38.30
2023-02-15T21:56:12.791Z,39.63
2023-02-15T21:58:40.094Z,41.63
2023-02-15T22:01:07.992Z,39.00
2023-02-15T22:03:37.330Z,38.53
2023-02-15T22:06:05.288Z,40.63
2023-02-15T22:08:33.042Z,40.58
2023-02-15T22:11:00.603Z,38.28
2023-02-15T22:13:28.128Z,39.75
2023-02-15T22:15:55.940Z,40.45
2023-02-15T22:18:33.378Z,37.97
2023-02-15T22:21:01.449Z,42.28
2023-02-15T22:23:28.895Z,38.05
2023-02-15T22:25:58.212Z,39.92
2023-02-15T22:30:52.548Z,39.22
2023-02-15T22:33:30.175Z,40.88
2023-02-15T22:35:57.448Z,41.17
2023-02-15T22:38:24.772Z,39.92
2023-02-15T22:40:52.880Z,43.30
2023-02-15T22:43:33.398Z,40.58
2023-02-15T22:46:02.796Z,38.80
2023-02-15T22:48:30.142Z,39.17
2023-02-15T22:50:57.494Z,38.83
2023-02-15T22:53:24.738Z,38.85
2023-02-15T22:55:52.566Z,41.85
2023-02-15T22:58:23.023Z,39.38
2023-02-15T23:00:50.561Z,39.83
2023-02-15T23:03:22.814Z,41.63
2023-02-15T23:05:50.108Z,40.85
2023-02-15T23:08:17.685Z,39.75
2023-02-15T23:10:45.953Z,42.97
2023-02-15T23:13:25.983Z,40.58
2023-02-15T23:15:55.300Z,42.45
2023-02-15T23:18:24.949Z,40.75
2023-02-15T23:20:54.715Z,41.30
2023-02-15T23:23:32.649Z,38.88
2023-02-15T23:25:59.985Z,39.75
2023-02-15T23:28:29.836Z,43.57
2023-02-15T23:30:57.511Z,39.65
2023-02-15T23:33:26.109Z,38.28
2023-02-15T23:35:53.313Z,42.42
2023-02-15T23:38:28.033Z,44.47
2023-02-15T23:41:15.782Z,43.97
2023-02-15T23:43:44.306Z,42.55
2023-02-15T23:46:21.003Z,44.80
2023-02-15T23:48:48.202Z,44.70
2023-02-15T23:51:15.530Z,43.95
2023-02-15T23:53:42.923Z,45.13
2023-02-15T23:56:12.844Z,46.38
2023-02-15T23:58:41.658Z,47.22
